Milenium Dos — ECCX — position and weather

sailwx.info

Track history (hours):
 
Tides and Currents Weather Stations Pressure Air Temp Water Temp Dewpoint Dewpoint Depression Visibility Wind Speed Wind Dir Waves Ship Positions

Milenium Dos

Last reported at 2017-Nov-23 18:31 UTC. Time now 2017-Nov-23 18:44 UTC.
Position N 35°56' W 005°19'.

Length 97 m; draft 2.7 m.

Type: Passenger vessel. MMSI: 224239000.

Date/timePositionNaut miles runAvg speedWind from/ knotsBaromVisibWave heightAir tempDewpointWater temp
2017-Nov-23 18:31N 35°56' W 005°19'2 4.0
2017-Nov-23 18:01N 35°54' W 005°19'0 0.0
2017-Nov-23 17:31N 35°54' W 005°19'6 2.3
2017-Nov-23 15:07N 35°59' W 005°20'325.8
2017-Nov-23 15:01N 35°56' W 005°19'3 5.1
2017-Nov-23 14:30N 35°54' W 005°19'5 2.7
2017-Nov-23 12:31N 35°59' W 005°21'026.4
2017-Nov-23 12:30N 35°58' W 005°20'510.0
2017-Nov-23 12:00N 35°54' W 005°19'1 2.7
2017-Nov-23 11:30N 35°55' W 005°19'6 2.3
2017-Nov-23 08:53N 36°01' W 005°20'718.6
2017-Nov-23 08:30N 35°54' W 005°19'0 0.0
2017-Nov-23 08:01N 35°54' W 005°19'11 1.1
2017-Nov-22 22:23N 36°04' W 005°23'1128.7
2017-Nov-22 22:01N 35°54' W 005°19'0 0.3
2017-Nov-22 21:30N 35°54' W 005°19'0 0.2
2017-Nov-22 21:01N 35°54' W 005°19'1122.4
2017-Nov-22 20:30N 36°05' W 005°23'4 3.2
2017-Nov-22 19:10N 36°08' W 005°26'  
2017-Nov-19 21:59N 36°04' W 005°23'1122.9
2017-Nov-19 21:30N 35°54' W 005°19'1 1.2
2017-Nov-19 21:00N 35°54' W 005°19'8 3.6
2017-Nov-19 18:43N 36°02' W 005°21'626.4
2017-Nov-19 18:31N 35°57' W 005°19'3 5.9
2017-Nov-19 18:00N 35°54' W 005°19'0 0.6
2017-Nov-19 17:30N 35°54' W 005°19'1324.8
2017-Nov-19 17:00N 36°06' W 005°23'2 1.3
2017-Nov-19 15:21N 36°04' W 005°22'927.0
2017-Nov-19 15:01N 35°55' W 005°19'1 2.1
2017-Nov-19 14:31N 35°54' W 005°19'1510.0
2017-Nov-19 12:58N 36°08' W 005°26'917.7
2017-Nov-19 12:28N 36°00' W 005°21'714.4
2017-Nov-19 12:00N 35°54' W 005°19'0 0.1
2017-Nov-19 11:30N 35°54' W 005°19'8 3.1
2017-Nov-19 09:00N 36°01' W 005°21'815.5
2017-Nov-19 08:30N 35°54' W 005°19'0 0.0
2017-Nov-19 08:01N 35°54' W 005°19'816.8
2017-Nov-19 07:30N 36°02' W 005°22'713.5
2017-Nov-19 06:59N 36°08' W 005°26'5 0.5
2017-Nov-18 21:53N 36°04' W 005°22'1128.5
2017-Nov-18 21:31N 35°54' W 005°19'0 0.6
2017-Nov-18 21:01N 35°54' W 005°19'1525.7
2017-Nov-18 20:25N 36°08' W 005°24'9 5.0
2017-Nov-18 18:42N 36°00' W 005°21'528.1
2017-Nov-18 18:31N 35°55' W 005°19'1 2.4
2017-Nov-18 18:00N 35°54' W 005°19'0 0.2
2017-Nov-18 17:30N 35°54' W 005°19'11 5.3
2017-Nov-18 15:22N 36°05' W 005°22'1027.3
2017-Nov-18 15:00N 35°56' W 005°19'2 3.8
2017-Nov-18 14:30N 35°54' W 005°19'917.8
2017-Nov-18 14:00N 36°02' W 005°22'3 2.0
2017-Nov-18 12:20N 35°59' W 005°20'617.5
2017-Nov-18 12:01N 35°54' W 005°19'0 0.2
2017-Nov-18 11:30N 35°54' W 005°19'5 2.1
2017-Nov-18 09:00N 35°59' W 005°20'510.7
2017-Nov-18 08:30N 35°54' W 005°19'0 0.0
2017-Nov-18 08:00N 35°54' W 005°19'612.2
2017-Nov-18 07:31N 35°60' W 005°21'3 0.3
2017-Nov-17 22:01N 36°02' W 005°21'034.2
2017-Nov-17 22:01N 36°02' W 005°21'917.0
2017-Nov-17 21:30N 35°54' W 005°19'0 0.3
2017-Nov-17 21:00N 35°54' W 005°19'9 4.2
2017-Nov-17 18:45N 36°03' W 005°22'624.7
2017-Nov-17 18:31N 35°57' W 005°20'4 7.4
2017-Nov-17 18:00N 35°54' W 005°19'0 0.6
2017-Nov-17 17:31N 35°54' W 005°19'6 2.9
2017-Nov-17 15:21N 35°60' W 005°21'618.6
2017-Nov-17 15:00N 35°54' W 005°19'0 0.0
2017-Nov-17 14:30N 35°54' W 005°19'6 2.9
2017-Nov-17 12:30N 35°59' W 005°20'612.1
2017-Nov-17 12:00N 35°54' W 005°19'0 0.6
2017-Nov-17 11:30N 35°54' W 005°19'6 2.5
2017-Nov-17 08:58N 35°60' W 005°21'613.5
2017-Nov-17 08:30N 35°54' W 005°19'2 4.6
2017-Nov-17 08:00N 35°56' W 005°19'13 1.4
2017-Nov-16 22:18N 36°08' W 005°26'514.1
2017-Nov-16 21:58N 36°04' W 005°23'1123.5
2017-Nov-16 21:30N 35°54' W 005°19'0 0.3
2017-Nov-16 21:00N 35°54' W 005°19'7 3.0
2017-Nov-16 18:49N 36°00' W 005°20'722.4
2017-Nov-16 18:30N 35°54' W 005°19'0 0.6
2017-Nov-16 18:00N 35°54' W 005°19'0 0.0
2017-Nov-16 17:30N 35°54' W 005°19'6 2.4
2017-Nov-16 15:12N 35°59' W 005°20'526.9
2017-Nov-16 15:00N 35°54' W 005°19'1 1.3
2017-Nov-16 14:30N 35°54' W 005°19'7 3.4
2017-Nov-16 12:28N 36°01' W 005°20'715.5
2017-Nov-16 12:01N 35°54' W 005°19'2 3.6
2017-Nov-16 11:31N 35°55' W 005°19'5 1.8
2017-Nov-16 08:51N 36°00' W 005°21'618.7
2017-Nov-16 08:31N 35°54' W 005°19'0 0.3
2017-Nov-16 08:01N 35°54' W 005°19'16 1.6
2017-Nov-15 22:21N 36°08' W 005°26'617.5
2017-Nov-15 21:59N 36°03' W 005°22'920.1
2017-Nov-15 21:30N 35°54' W 005°19'1 1.6
2017-Nov-15 21:01N 35°54' W 005°18'5 2.3
2017-Nov-15 18:41N 35°59' W 005°20'425.7
2017-Nov-15 18:31N 35°55' W 005°19'1 2.7
2017-Nov-15 18:00N 35°54' W 005°19'2 4.0
2017-Nov-15 17:30N 35°55' W 005°18'4 2.1
2017-Nov-15 15:28N 35°59' W 005°21'612.1
2017-Nov-15 15:00N 35°54' W 005°19'1 1.9
2017-Nov-15 14:31N 35°54' W 005°19'4 2.0
2017-Nov-15 12:29N 35°58' W 005°20'510.1
2017-Nov-15 12:00N 35°54' W 005°19'1 2.9
2017-Nov-15 11:30N 35°55' W 005°19'4 1.4
2017-Nov-15 08:51N 35°59' W 005°20'514.4
2017-Nov-15 08:30N 35°54' W 005°19'0 0.5
2017-Nov-15 08:01N 35°54' W 005°19'6 0.6
2017-Nov-14 21:51N 35°59' W 005°20'617.4
2017-Nov-14 21:30N 35°54' W 005°19'0 0.3
2017-Nov-14 21:00N 35°54' W 005°19'1221.9
2017-Nov-14 20:29N 36°05' W 005°23'5 2.6
2017-Nov-14 18:38N 36°01' W 005°20'427.9
2017-Nov-14 18:31N 35°57' W 005°19'4 7.1
2017-Nov-14 18:00N 35°54' W 005°19'0 0.0
2017-Nov-14 17:30N 35°54' W 005°19'6 2.5
2017-Nov-14 15:13N 35°59' W 005°20'525.2
2017-Nov-14 15:01N 35°54' W 005°19'1 1.8
2017-Nov-14 14:31N 35°54' W 005°19'6 2.6
2017-Nov-14 12:22N 35°59' W 005°21'615.4
2017-Nov-14 12:00N 35°54' W 005°19'1 2.0
2017-Nov-14 11:30N 35°54' W 005°18'6 2.4
2017-Nov-14 08:54N 36°00' W 005°21'717.8
2017-Nov-14 08:30N 35°54' W 005°19'0 0.0
2017-Nov-14 08:00N 35°54' W 005°19'15 1.6
2017-Nov-13 22:25N 36°08' W 005°26'615.0
2017-Nov-13 22:01N 36°03' W 005°21'  
Track history (hours):
 
Tides and Currents Weather Stations Pressure Air Temp Water Temp Dewpoint Dewpoint Depression Visibility Wind Speed Wind Dir Waves Ship Positions

Milenium Dos

Last reported at 2017-Nov-23 18:31 UTC. Time now 2017-Nov-23 18:45 UTC.
Position N 35°56' W 005°19'.

Length 97 m; draft 2.7 m.

Type: Passenger vessel. MMSI: 224239000.

Date/timePositionNaut miles runAvg speedWind from/ knotsBaromVisibWave heightAir tempDewpointWater temp
2017-Nov-23 18:31N 35°56' W 005°19'2 4.0
2017-Nov-23 18:01N 35°54' W 005°19'0 0.0
2017-Nov-23 17:31N 35°54' W 005°19'6 2.3
2017-Nov-23 15:07N 35°59' W 005°20'325.8
2017-Nov-23 15:01N 35°56' W 005°19'3 5.1
2017-Nov-23 14:30N 35°54' W 005°19'5 2.7
2017-Nov-23 12:31N 35°59' W 005°21'026.4
2017-Nov-23 12:30N 35°58' W 005°20'510.0
2017-Nov-23 12:00N 35°54' W 005°19'1 2.7
2017-Nov-23 11:30N 35°55' W 005°19'6 2.3
2017-Nov-23 08:53N 36°01' W 005°20'718.6
2017-Nov-23 08:30N 35°54' W 005°19'0 0.0
2017-Nov-23 08:01N 35°54' W 005°19'11 1.1
2017-Nov-22 22:23N 36°04' W 005°23'1128.7
2017-Nov-22 22:01N 35°54' W 005°19'0 0.3
2017-Nov-22 21:30N 35°54' W 005°19'0 0.2
2017-Nov-22 21:01N 35°54' W 005°19'1122.4
2017-Nov-22 20:30N 36°05' W 005°23'4 3.2
2017-Nov-22 19:10N 36°08' W 005°26'  
2017-Nov-19 21:59N 36°04' W 005°23'1122.9
2017-Nov-19 21:30N 35°54' W 005°19'1 1.2
2017-Nov-19 21:00N 35°54' W 005°19'8 3.6
2017-Nov-19 18:43N 36°02' W 005°21'626.4
2017-Nov-19 18:31N 35°57' W 005°19'3 5.9
2017-Nov-19 18:00N 35°54' W 005°19'0 0.6
2017-Nov-19 17:30N 35°54' W 005°19'1324.8
2017-Nov-19 17:00N 36°06' W 005°23'2 1.3
2017-Nov-19 15:21N 36°04' W 005°22'927.0
2017-Nov-19 15:01N 35°55' W 005°19'1 2.1
2017-Nov-19 14:31N 35°54' W 005°19'1510.0
2017-Nov-19 12:58N 36°08' W 005°26'917.7
2017-Nov-19 12:28N 36°00' W 005°21'714.4
2017-Nov-19 12:00N 35°54' W 005°19'0 0.1
2017-Nov-19 11:30N 35°54' W 005°19'8 3.1
2017-Nov-19 09:00N 36°01' W 005°21'815.5
2017-Nov-19 08:30N 35°54' W 005°19'0 0.0
2017-Nov-19 08:01N 35°54' W 005°19'816.8
2017-Nov-19 07:30N 36°02' W 005°22'713.5
2017-Nov-19 06:59N 36°08' W 005°26'5 0.5
2017-Nov-18 21:53N 36°04' W 005°22'1128.5
2017-Nov-18 21:31N 35°54' W 005°19'0 0.6
2017-Nov-18 21:01N 35°54' W 005°19'1525.7
2017-Nov-18 20:25N 36°08' W 005°24'9 5.0
2017-Nov-18 18:42N 36°00' W 005°21'528.1
2017-Nov-18 18:31N 35°55' W 005°19'1 2.4
2017-Nov-18 18:00N 35°54' W 005°19'0 0.2
2017-Nov-18 17:30N 35°54' W 005°19'11 5.3
2017-Nov-18 15:22N 36°05' W 005°22'1027.3
2017-Nov-18 15:00N 35°56' W 005°19'2 3.8
2017-Nov-18 14:30N 35°54' W 005°19'917.8
2017-Nov-18 14:00N 36°02' W 005°22'3 2.0
2017-Nov-18 12:20N 35°59' W 005°20'617.5
2017-Nov-18 12:01N 35°54' W 005°19'0 0.2
2017-Nov-18 11:30N 35°54' W 005°19'5 2.1
2017-Nov-18 09:00N 35°59' W 005°20'510.7
2017-Nov-18 08:30N 35°54' W 005°19'0 0.0
2017-Nov-18 08:00N 35°54' W 005°19'612.2
2017-Nov-18 07:31N 35°60' W 005°21'3 0.3
2017-Nov-17 22:01N 36°02' W 005°21'034.2
2017-Nov-17 22:01N 36°02' W 005°21'917.0
2017-Nov-17 21:30N 35°54' W 005°19'0 0.3
2017-Nov-17 21:00N 35°54' W 005°19'9 4.2
2017-Nov-17 18:45N 36°03' W 005°22'624.7
2017-Nov-17 18:31N 35°57' W 005°20'4 7.4
2017-Nov-17 18:00N 35°54' W 005°19'0 0.6
2017-Nov-17 17:31N 35°54' W 005°19'6 2.9
2017-Nov-17 15:21N 35°60' W 005°21'618.6
2017-Nov-17 15:00N 35°54' W 005°19'0 0.0
2017-Nov-17 14:30N 35°54' W 005°19'6 2.9
2017-Nov-17 12:30N 35°59' W 005°20'612.1
2017-Nov-17 12:00N 35°54' W 005°19'0 0.6
2017-Nov-17 11:30N 35°54' W 005°19'6 2.5
2017-Nov-17 08:58N 35°60' W 005°21'613.5
2017-Nov-17 08:30N 35°54' W 005°19'2 4.6
2017-Nov-17 08:00N 35°56' W 005°19'13 1.4
2017-Nov-16 22:18N 36°08' W 005°26'514.1
2017-Nov-16 21:58N 36°04' W 005°23'1123.5
2017-Nov-16 21:30N 35°54' W 005°19'0 0.3
2017-Nov-16 21:00N 35°54' W 005°19'7 3.0
2017-Nov-16 18:49N 36°00' W 005°20'722.4
2017-Nov-16 18:30N 35°54' W 005°19'0 0.6
2017-Nov-16 18:00N 35°54' W 005°19'0 0.0
2017-Nov-16 17:30N 35°54' W 005°19'6 2.4
2017-Nov-16 15:12N 35°59' W 005°20'526.9
2017-Nov-16 15:00N 35°54' W 005°19'1 1.3
2017-Nov-16 14:30N 35°54' W 005°19'7 3.4
2017-Nov-16 12:28N 36°01' W 005°20'715.5
2017-Nov-16 12:01N 35°54' W 005°19'2 3.6
2017-Nov-16 11:31N 35°55' W 005°19'5 1.8
2017-Nov-16 08:51N 36°00' W 005°21'618.7
2017-Nov-16 08:31N 35°54' W 005°19'0 0.3
2017-Nov-16 08:01N 35°54' W 005°19'16 1.6
2017-Nov-15 22:21N 36°08' W 005°26'617.5
2017-Nov-15 21:59N 36°03' W 005°22'920.1
2017-Nov-15 21:30N 35°54' W 005°19'1 1.6
2017-Nov-15 21:01N 35°54' W 005°18'5 2.3
2017-Nov-15 18:41N 35°59' W 005°20'425.7
2017-Nov-15 18:31N 35°55' W 005°19'1 2.7
2017-Nov-15 18:00N 35°54' W 005°19'2 4.0
2017-Nov-15 17:30N 35°55' W 005°18'4 2.1
2017-Nov-15 15:28N 35°59' W 005°21'612.1
2017-Nov-15 15:00N 35°54' W 005°19'1 1.9
2017-Nov-15 14:31N 35°54' W 005°19'4 2.0
2017-Nov-15 12:29N 35°58' W 005°20'510.1
2017-Nov-15 12:00N 35°54' W 005°19'1 2.9
2017-Nov-15 11:30N 35°55' W 005°19'4 1.4
2017-Nov-15 08:51N 35°59' W 005°20'514.4
2017-Nov-15 08:30N 35°54' W 005°19'0 0.5
2017-Nov-15 08:01N 35°54' W 005°19'6 0.6
2017-Nov-14 21:51N 35°59' W 005°20'617.4
2017-Nov-14 21:30N 35°54' W 005°19'0 0.3
2017-Nov-14 21:00N 35°54' W 005°19'1221.9
2017-Nov-14 20:29N 36°05' W 005°23'5 2.6
2017-Nov-14 18:38N 36°01' W 005°20'427.9
2017-Nov-14 18:31N 35°57' W 005°19'4 7.1
2017-Nov-14 18:00N 35°54' W 005°19'0 0.0
2017-Nov-14 17:30N 35°54' W 005°19'6 2.5
2017-Nov-14 15:13N 35°59' W 005°20'525.2
2017-Nov-14 15:01N 35°54' W 005°19'1 1.8
2017-Nov-14 14:31N 35°54' W 005°19'6 2.6
2017-Nov-14 12:22N 35°59' W 005°21'615.4
2017-Nov-14 12:00N 35°54' W 005°19'1 2.0
2017-Nov-14 11:30N 35°54' W 005°18'6 2.4
2017-Nov-14 08:54N 36°00' W 005°21'717.8
2017-Nov-14 08:30N 35°54' W 005°19'0 0.0
2017-Nov-14 08:00N 35°54' W 005°19'15 1.6
2017-Nov-13 22:25N 36°08' W 005°26'615.0
2017-Nov-13 22:01N 36°03' W 005°21'  

Dump ship's entire track history